createdAt,value
2017-08-24T00:01:23.899Z,19.60
2017-08-24T00:03:51.440Z,19.60
2017-08-24T00:06:18.949Z,19.60
2017-08-24T00:08:46.449Z,19.60
2017-08-24T00:11:14.011Z,19.50
2017-08-24T00:13:41.535Z,19.50
2017-08-24T00:16:09.104Z,19.40
2017-08-24T00:18:36.627Z,19.40
2017-08-24T00:21:04.127Z,19.10
2017-08-24T00:23:31.701Z,19.10
2017-08-24T00:25:59.263Z,19.10
2017-08-24T00:28:26.817Z,19.10
2017-08-24T00:30:54.347Z,19.20
2017-08-24T00:33:21.894Z,19.10
2017-08-24T00:35:49.413Z,19.10
2017-08-24T00:38:17.314Z,19.10
2017-08-24T00:40:45.776Z,19.20
2017-08-24T00:43:13.340Z,19.20
2017-08-24T00:45:41.431Z,19.20
2017-08-24T00:48:08.953Z,19.20
2017-08-24T00:50:36.479Z,19.20
2017-08-24T00:53:04.015Z,19.20
2017-08-24T00:55:31.575Z,19.20
2017-08-24T00:57:59.084Z,19.30
2017-08-24T01:00:26.643Z,19.20
2017-08-24T01:02:54.164Z,19.30
2017-08-24T01:05:22.083Z,19.30
2017-08-24T01:07:49.629Z,19.30
2017-08-24T01:10:17.164Z,19.20
2017-08-24T01:12:44.719Z,19.30
2017-08-24T01:15:12.247Z,19.30
2017-08-24T01:17:39.819Z,19.30
2017-08-24T01:20:07.879Z,19.30
2017-08-24T01:22:35.412Z,19.30
2017-08-24T01:25:03.061Z,19.30
2017-08-24T01:27:30.630Z,19.20
2017-08-24T01:29:58.122Z,19.10
2017-08-24T01:32:25.611Z,19.00
2017-08-24T01:34:53.165Z,19.00
2017-08-24T01:37:20.663Z,19.00
2017-08-24T01:39:48.220Z,18.90
2017-08-24T01:42:15.756Z,18.90
2017-08-24T01:44:43.284Z,18.90
2017-08-24T01:47:10.835Z,18.90
2017-08-24T01:49:38.353Z,18.80
2017-08-24T01:52:05.895Z,18.80
2017-08-24T01:54:33.433Z,18.70
2017-08-24T01:57:00.930Z,18.70
2017-08-24T01:59:28.457Z,18.70
2017-08-24T02:01:56.805Z,18.70
2017-08-24T02:04:24.304Z,18.80
2017-08-24T02:06:51.821Z,18.80
2017-08-24T02:09:19.432Z,18.80
2017-08-24T02:11:46.976Z,18.80
2017-08-24T02:14:14.497Z,18.80
2017-08-24T02:16:42.044Z,18.80
2017-08-24T02:19:09.542Z,18.90
2017-08-24T02:21:37.057Z,18.90
2017-08-24T02:24:04.619Z,18.90
2017-08-24T02:26:32.120Z,18.90
2017-08-24T02:28:59.658Z,19.00
2017-08-24T02:31:27.202Z,19.00
2017-08-24T02:33:54.705Z,19.00
2017-08-24T02:36:22.238Z,19.00
2017-08-24T02:38:49.730Z,19.00
2017-08-24T02:41:17.291Z,19.00
2017-08-24T02:43:44.806Z,19.00
2017-08-24T02:46:12.331Z,19.00
2017-08-24T02:48:39.888Z,19.00
2017-08-24T02:51:07.399Z,19.00
2017-08-24T02:53:34.951Z,19.00
2017-08-24T02:56:02.466Z,19.00
2017-08-24T02:58:29.977Z,18.90
2017-08-24T03:00:57.551Z,19.00
2017-08-24T03:03:25.055Z,18.90
2017-08-24T03:05:52.616Z,18.90
2017-08-24T03:08:20.106Z,18.90
2017-08-24T03:10:47.617Z,18.90
2017-08-24T03:13:15.182Z,18.90
2017-08-24T03:15:42.690Z,18.90
2017-08-24T03:18:10.216Z,18.80
2017-08-24T03:20:37.752Z,18.80
2017-08-24T03:23:05.259Z,18.80
2017-08-24T03:25:32.799Z,18.80
2017-08-24T03:28:00.336Z,18.80
2017-08-24T03:30:27.886Z,18.80
2017-08-24T03:32:55.411Z,18.70
2017-08-24T03:35:22.959Z,18.70
2017-08-24T03:37:50.462Z,18.70
2017-08-24T03:40:17.967Z,18.70
2017-08-24T03:42:45.506Z,18.70
2017-08-24T03:45:13.681Z,18.70
2017-08-24T03:47:41.202Z,18.70
2017-08-24T03:50:08.750Z,18.60
2017-08-24T03:52:36.284Z,18.60
2017-08-24T03:55:04.181Z,18.60
2017-08-24T03:57:31.758Z,18.60
2017-08-24T03:59:59.261Z,18.50
2017-08-24T04:02:26.775Z,18.60
2017-08-24T04:04:54.334Z,18.60
2017-08-24T04:07:21.910Z,18.60
2017-08-24T04:09:49.439Z,18.60
2017-08-24T04:12:16.959Z,18.60
2017-08-24T04:14:44.525Z,18.60
2017-08-24T04:17:12.040Z,18.50
2017-08-24T04:19:39.599Z,18.50
2017-08-24T04:22:07.150Z,18.50
2017-08-24T04:24:34.718Z,18.50
2017-08-24T04:27:02.322Z,18.50
2017-08-24T04:29:29.887Z,18.50
2017-08-24T04:31:57.398Z,18.40
2017-08-24T04:34:24.914Z,18.50
2017-08-24T04:36:52.456Z,18.50
2017-08-24T04:39:19.972Z,18.50
2017-08-24T04:41:47.511Z,18.50
2017-08-24T04:44:15.066Z,18.50
2017-08-24T04:46:42.712Z,18.50
2017-08-24T04:49:10.794Z,18.50
2017-08-24T04:51:38.370Z,18.50
2017-08-24T04:54:07.093Z,18.60
2017-08-24T04:56:34.600Z,18.60
2017-08-24T04:59:02.173Z,18.60
2017-08-24T05:01:29.714Z,18.60
2017-08-24T05:03:57.249Z,18.50
2017-08-24T05:06:24.784Z,18.60
2017-08-24T05:08:52.293Z,18.60
2017-08-24T05:11:19.833Z,18.60
2017-08-24T05:13:47.398Z,18.60
2017-08-24T05:16:14.916Z,18.70
2017-08-24T05:18:42.446Z,18.60
2017-08-24T05:21:09.995Z,18.70
2017-08-24T05:23:37.537Z,18.80
2017-08-24T05:26:05.059Z,18.80
2017-08-24T05:28:32.602Z,18.80
2017-08-24T05:31:00.140Z,18.80
2017-08-24T05:33:27.653Z,18.80
2017-08-24T05:35:55.227Z,18.80
2017-08-24T05:38:22.820Z,18.80
2017-08-24T05:40:50.342Z,18.80
2017-08-24T05:43:17.897Z,18.90
2017-08-24T05:45:45.423Z,18.90
2017-08-24T05:48:13.558Z,18.90
2017-08-24T05:50:41.051Z,18.90
2017-08-24T05:53:09.427Z,19.00
2017-08-24T05:55:36.982Z,19.00
2017-08-24T05:58:04.527Z,19.00
2017-08-24T06:00:32.087Z,19.00
2017-08-24T06:02:59.609Z,19.10
2017-08-24T06:05:27.150Z,19.10
2017-08-24T06:07:54.723Z,19.20
2017-08-24T06:10:22.237Z,19.20
2017-08-24T06:12:50.359Z,19.20
2017-08-24T06:15:17.873Z,19.20
2017-08-24T06:17:45.378Z,19.20
2017-08-24T06:20:12.940Z,19.30
2017-08-24T06:22:40.459Z,19.30
2017-08-24T06:25:09.282Z,19.50
2017-08-24T06:27:36.828Z,19.40
2017-08-24T06:30:04.553Z,19.50
2017-08-24T06:32:32.175Z,19.60
2017-08-24T06:34:59.733Z,19.60
2017-08-24T06:37:27.239Z,19.60
2017-08-24T06:39:54.791Z,19.70
2017-08-24T06:42:22.321Z,19.80
2017-08-24T06:44:50.623Z,19.80
2017-08-24T06:47:18.198Z,19.80
2017-08-24T06:49:45.729Z,19.90
2017-08-24T06:52:13.793Z,19.90
2017-08-24T06:54:42.142Z,20.00
2017-08-24T06:57:10.252Z,20.00
2017-08-24T06:59:37.803Z,20.00
2017-08-24T07:02:05.382Z,20.00
2017-08-24T07:04:32.912Z,20.00
2017-08-24T07:07:00.497Z,20.00
2017-08-24T07:09:28.105Z,20.10
2017-08-24T07:11:55.633Z,20.10
2017-08-24T07:14:23.207Z,20.10
2017-08-24T07:16:50.810Z,20.10
2017-08-24T07:19:18.454Z,20.20
2017-08-24T07:21:46.129Z,20.20
2017-08-24T07:24:14.890Z,20.20
2017-08-24T07:26:42.461Z,20.30
2017-08-24T07:29:10.059Z,20.30
2017-08-24T07:31:37.707Z,20.30
2017-08-24T07:34:05.257Z,20.40
2017-08-24T07:36:32.836Z,20.40
2017-08-24T07:39:00.405Z,20.40
2017-08-24T07:41:28.364Z,20.50
2017-08-24T07:43:55.975Z,20.50
2017-08-24T07:46:23.508Z,20.50
2017-08-24T07:48:51.080Z,20.60
2017-08-24T07:51:19.627Z,20.60
2017-08-24T07:53:47.198Z,20.60
2017-08-24T07:56:14.801Z,20.60
2017-08-24T07:58:42.341Z,20.60
2017-08-24T08:01:09.894Z,20.70
2017-08-24T08:03:37.460Z,20.70
2017-08-24T08:06:05.063Z,20.80
2017-08-24T08:08:32.621Z,20.80
2017-08-24T08:11:00.192Z,20.90
2017-08-24T08:13:27.716Z,21.00
2017-08-24T08:15:55.240Z,21.00
2017-08-24T08:18:23.775Z,21.10
2017-08-24T08:20:51.399Z,21.10
2017-08-24T08:23:19.123Z,21.20
2017-08-24T08:25:46.659Z,21.20
2017-08-24T08:28:14.237Z,21.20
2017-08-24T08:30:41.800Z,21.30
2017-08-24T08:33:09.388Z,21.40
2017-08-24T08:35:36.903Z,21.40
2017-08-24T08:38:04.454Z,21.40
2017-08-24T08:40:32.179Z,21.50
2017-08-24T08:42:59.774Z,21.50
2017-08-24T08:45:27.408Z,21.60
2017-08-24T08:47:55.000Z,21.70
2017-08-24T08:50:22.531Z,21.70
2017-08-24T08:52:50.108Z,21.80
2017-08-24T08:55:17.633Z,21.80
2017-08-24T08:57:45.889Z,21.90
2017-08-24T09:00:13.822Z,22.00
2017-08-24T09:02:41.366Z,22.00
2017-08-24T09:05:10.000Z,22.10
2017-08-24T09:07:37.550Z,22.20
2017-08-24T09:10:05.859Z,22.20
2017-08-24T09:12:33.412Z,22.20
2017-08-24T09:15:00.973Z,22.30
2017-08-24T09:17:28.490Z,22.40
2017-08-24T09:19:56.140Z,22.40
2017-08-24T09:22:23.796Z,22.50
2017-08-24T09:24:51.298Z,22.60
2017-08-24T09:27:18.953Z,22.60
2017-08-24T09:29:46.586Z,22.70
2017-08-24T09:32:14.234Z,22.90
2017-08-24T09:34:41.813Z,22.90
2017-08-24T09:37:09.336Z,23.00
2017-08-24T09:39:36.931Z,23.10
2017-08-24T09:42:04.451Z,23.20
2017-08-24T09:44:32.067Z,23.30
2017-08-24T09:46:59.604Z,23.40
2017-08-24T09:49:27.175Z,23.50
2017-08-24T09:51:54.730Z,23.50
2017-08-24T09:54:22.245Z,23.50
2017-08-24T09:56:49.846Z,23.60
2017-08-24T09:59:17.376Z,23.70
2017-08-24T10:01:44.897Z,23.70
2017-08-24T10:04:12.460Z,23.70
2017-08-24T10:06:40.093Z,23.80
2017-08-24T10:09:07.709Z,23.80
2017-08-24T10:11:35.326Z,23.80
2017-08-24T10:14:02.939Z,23.90
2017-08-24T10:16:30.468Z,23.90
2017-08-24T10:18:58.025Z,23.90
2017-08-24T10:21:25.582Z,23.90
2017-08-24T10:23:53.121Z,24.00
2017-08-24T10:26:20.698Z,24.10
2017-08-24T10:28:48.263Z,24.20
2017-08-24T10:31:15.819Z,24.30
2017-08-24T10:33:43.377Z,24.30
2017-08-24T10:36:10.939Z,24.40
2017-08-24T10:38:38.433Z,24.50
2017-08-24T10:41:05.980Z,24.50
2017-08-24T10:43:33.491Z,24.60
2017-08-24T10:46:01.751Z,24.60
2017-08-24T10:48:29.288Z,24.60
2017-08-24T10:50:56.843Z,24.70
2017-08-24T10:53:24.422Z,24.70
2017-08-24T10:55:51.936Z,24.70
2017-08-24T10:58:19.503Z,24.80
2017-08-24T11:00:47.090Z,24.80
2017-08-24T11:03:15.542Z,24.90
2017-08-24T11:05:43.123Z,25.00
2017-08-24T11:08:11.615Z,25.10
2017-08-24T11:10:39.342Z,25.10
2017-08-24T11:13:06.966Z,25.20
2017-08-24T11:15:34.523Z,25.20
2017-08-24T11:18:02.068Z,25.30
2017-08-24T11:20:30.400Z,25.50
2017-08-24T11:22:57.907Z,25.50
2017-08-24T11:25:25.430Z,25.50
2017-08-24T11:27:53.838Z,25.60
2017-08-24T11:30:22.677Z,25.70
2017-08-24T11:32:50.281Z,25.70
2017-08-24T11:35:17.862Z,25.80
2017-08-24T11:37:46.184Z,25.90
2017-08-24T11:40:13.737Z,25.90
2017-08-24T11:42:41.310Z,26.00
2017-08-24T11:45:08.831Z,26.10
2017-08-24T11:47:36.500Z,26.10
2017-08-24T11:50:04.690Z,26.20
2017-08-24T11:52:32.311Z,26.20
2017-08-24T11:54:59.853Z,26.30
2017-08-24T11:57:27.377Z,26.30
2017-08-24T11:59:54.986Z,26.40
2017-08-24T12:02:22.475Z,26.40
2017-08-24T12:04:51.416Z,26.40
2017-08-24T12:07:18.991Z,26.40
2017-08-24T12:09:46.550Z,26.40
2017-08-24T12:12:14.180Z,26.50
2017-08-24T12:14:41.701Z,26.50
2017-08-24T12:17:10.771Z,26.40
2017-08-24T12:19:38.319Z,26.40
2017-08-24T12:22:05.862Z,26.40
2017-08-24T12:24:33.400Z,26.40
2017-08-24T12:27:00.975Z,26.50
2017-08-24T12:29:28.519Z,26.50
2017-08-24T12:31:56.082Z,26.50
2017-08-24T12:34:24.502Z,26.60
2017-08-24T12:36:52.003Z,26.60
2017-08-24T12:39:19.532Z,26.70
2017-08-24T12:41:47.100Z,26.80
2017-08-24T12:44:14.613Z,26.90
2017-08-24T12:46:42.200Z,27.00
2017-08-24T12:49:09.757Z,27.10
2017-08-24T12:51:38.138Z,27.20
2017-08-24T12:54:05.729Z,27.40
2017-08-24T12:56:33.241Z,27.50
2017-08-24T12:59:00.756Z,27.70
2017-08-24T13:01:28.795Z,27.70
2017-08-24T13:03:56.376Z,27.80
2017-08-24T13:06:23.952Z,28.00
2017-08-24T13:08:51.499Z,28.00
2017-08-24T13:11:19.218Z,28.00
2017-08-24T13:13:46.768Z,28.10
2017-08-24T13:16:14.323Z,28.10
2017-08-24T13:18:41.916Z,28.20
2017-08-24T13:21:09.505Z,28.20
2017-08-24T13:23:37.142Z,28.30
2017-08-24T13:26:04.647Z,28.40
2017-08-24T13:28:32.159Z,28.50
2017-08-24T13:31:00.899Z,28.60
2017-08-24T13:33:28.439Z,28.60
2017-08-24T13:35:55.974Z,28.70
2017-08-24T13:38:24.341Z,28.70
2017-08-24T13:40:51.873Z,28.80
2017-08-24T13:43:19.513Z,28.70
2017-08-24T13:45:47.043Z,28.80
2017-08-24T13:48:14.553Z,28.90
2017-08-24T13:50:43.100Z,29.00
2017-08-24T13:53:10.639Z,29.00
2017-08-24T13:55:38.189Z,29.10
2017-08-24T13:58:05.787Z,29.10
2017-08-24T14:00:33.321Z,29.10
2017-08-24T14:03:01.347Z,29.10
2017-08-24T14:05:28.861Z,29.20
2017-08-24T14:07:56.367Z,29.20
2017-08-24T14:10:23.921Z,29.20
2017-08-24T14:12:51.419Z,29.30
2017-08-24T14:15:18.952Z,29.30
2017-08-24T14:17:46.489Z,29.30
2017-08-24T14:20:14.005Z,29.40
2017-08-24T14:22:41.562Z,29.40
2017-08-24T14:25:09.820Z,29.50
2017-08-24T14:27:37.334Z,29.50
2017-08-24T14:30:05.248Z,29.50
2017-08-24T14:32:32.754Z,29.60
2017-08-24T14:35:00.261Z,29.60
2017-08-24T14:37:27.822Z,29.60
2017-08-24T14:39:55.349Z,29.50
2017-08-24T14:42:22.918Z,29.50
2017-08-24T14:44:50.445Z,29.50
2017-08-24T14:47:17.970Z,29.50
2017-08-24T14:49:45.548Z,29.40
2017-08-24T14:52:13.836Z,29.40
2017-08-24T14:54:41.359Z,29.30
2017-08-24T14:57:08.939Z,29.30
2017-08-24T14:59:36.451Z,29.20
2017-08-24T15:02:03.971Z,29.10
2017-08-24T15:04:31.512Z,29.10
2017-08-24T15:06:59.095Z,29.10
2017-08-24T15:09:26.624Z,29.10
2017-08-24T15:11:54.186Z,29.10
2017-08-24T15:14:22.532Z,29.10
2017-08-24T15:16:50.094Z,29.10
2017-08-24T15:19:17.601Z,29.10
2017-08-24T15:21:45.155Z,29.10
2017-08-24T15:24:12.668Z,29.00
2017-08-24T15:26:40.238Z,28.90
2017-08-24T15:29:07.741Z,28.90
2017-08-24T15:31:35.249Z,28.90
2017-08-24T15:34:02.820Z,28.80
2017-08-24T15:36:30.316Z,28.80
2017-08-24T15:38:57.829Z,28.70
2017-08-24T15:41:25.372Z,28.70
2017-08-24T15:43:52.891Z,28.70
2017-08-24T15:46:20.408Z,28.70
2017-08-24T15:48:47.955Z,28.70
2017-08-24T15:51:15.512Z,28.80
2017-08-24T15:53:43.055Z,28.80
2017-08-24T15:56:10.568Z,28.80
2017-08-24T15:58:38.066Z,28.80
2017-08-24T16:01:05.792Z,28.80
2017-08-24T16:03:33.327Z,28.80
2017-08-24T16:06:00.890Z,28.80
2017-08-24T16:08:28.442Z,28.80
2017-08-24T16:10:55.963Z,29.00
2017-08-24T16:13:23.468Z,29.10
2017-08-24T16:15:51.177Z,29.30
2017-08-24T16:18:18.695Z,29.40
2017-08-24T16:20:46.195Z,29.50
2017-08-24T16:23:13.740Z,29.60
2017-08-24T16:25:41.262Z,29.80
2017-08-24T16:28:08.764Z,29.90
2017-08-24T16:30:36.327Z,29.90
2017-08-24T16:33:03.851Z,30.00
2017-08-24T16:35:31.382Z,30.00
2017-08-24T16:37:58.896Z,30.10
2017-08-24T16:40:26.452Z,30.10
2017-08-24T16:42:54.020Z,30.00
2017-08-24T16:45:21.520Z,29.90
2017-08-24T16:47:49.046Z,29.80
2017-08-24T16:50:16.599Z,29.70
2017-08-24T16:52:44.865Z,29.40
2017-08-24T16:55:12.380Z,29.40
2017-08-24T16:57:39.960Z,29.30
2017-08-24T17:00:07.518Z,29.10
2017-08-24T17:02:35.075Z,29.00
2017-08-24T17:05:02.930Z,28.80
2017-08-24T17:07:30.435Z,28.70
2017-08-24T17:09:58.074Z,28.60
2017-08-24T17:12:25.618Z,28.50
2017-08-24T17:14:53.124Z,28.40
2017-08-24T17:17:20.656Z,28.30
2017-08-24T17:19:48.178Z,28.20
2017-08-24T17:22:15.740Z,28.10
2017-08-24T17:24:43.304Z,28.10
2017-08-24T17:27:10.881Z,28.00
2017-08-24T17:29:38.400Z,27.90
2017-08-24T17:32:05.920Z,27.90
2017-08-24T17:34:34.604Z,27.80
2017-08-24T17:37:02.111Z,27.80
2017-08-24T17:39:29.734Z,27.70
2017-08-24T17:41:57.323Z,27.70
2017-08-24T17:44:24.830Z,27.60
2017-08-24T17:46:52.794Z,27.50
2017-08-24T17:49:20.344Z,27.50
2017-08-24T17:51:47.830Z,27.40
2017-08-24T17:54:17.073Z,27.30
2017-08-24T17:56:44.574Z,27.30
2017-08-24T17:59:12.225Z,27.30
2017-08-24T18:01:39.849Z,27.20
2017-08-24T18:04:07.525Z,27.20
2017-08-24T18:06:35.044Z,27.10
2017-08-24T18:09:02.649Z,27.10
2017-08-24T18:11:30.295Z,27.10
2017-08-24T18:13:57.841Z,27.00
2017-08-24T18:16:25.457Z,27.00
2017-08-24T18:18:52.974Z,26.90
2017-08-24T18:21:20.502Z,26.90
2017-08-24T18:23:48.092Z,26.80
2017-08-24T18:26:15.642Z,26.80
2017-08-24T18:28:43.179Z,26.80
2017-08-24T18:31:10.761Z,26.70
2017-08-24T18:33:38.280Z,26.70
2017-08-24T18:36:05.816Z,26.70
2017-08-24T18:38:33.550Z,26.60
2017-08-24T18:41:01.051Z,26.60
2017-08-24T18:43:28.572Z,26.60
2017-08-24T18:45:56.113Z,26.50
2017-08-24T18:48:23.621Z,26.50
2017-08-24T18:50:51.223Z,26.50
2017-08-24T18:53:18.730Z,26.50
2017-08-24T18:55:46.311Z,26.50
2017-08-24T18:58:13.848Z,26.40
2017-08-24T19:00:41.371Z,26.40
2017-08-24T19:03:08.903Z,26.40
2017-08-24T19:05:36.470Z,26.40
2017-08-24T19:08:03.984Z,26.40
2017-08-24T19:10:31.529Z,26.40
2017-08-24T19:12:59.040Z,26.40
2017-08-24T19:15:26.574Z,26.40
2017-08-24T19:17:54.150Z,26.40
2017-08-24T19:20:21.710Z,26.40
2017-08-24T19:22:49.206Z,26.40
2017-08-24T19:25:17.171Z,26.30
2017-08-24T19:27:44.890Z,26.30
2017-08-24T19:30:12.412Z,26.30
2017-08-24T19:32:39.983Z,26.30
2017-08-24T19:35:07.477Z,26.30
2017-08-24T19:37:34.977Z,26.30
2017-08-24T19:40:02.611Z,26.30
2017-08-24T19:42:30.177Z,26.20
2017-08-24T19:44:57.695Z,26.20
2017-08-24T19:47:25.241Z,26.20
2017-08-24T19:49:53.069Z,26.20
2017-08-24T19:52:21.335Z,26.20
2017-08-24T19:54:48.947Z,26.20
2017-08-24T19:57:16.576Z,26.20
2017-08-24T19:59:44.115Z,26.10
2017-08-24T20:02:11.656Z,26.10
2017-08-24T20:04:39.236Z,26.10
2017-08-24T20:07:07.514Z,26.10
2017-08-24T20:09:35.045Z,26.00
2017-08-24T20:12:03.078Z,26.00
2017-08-24T20:14:30.621Z,25.90
2017-08-24T20:16:58.145Z,25.90
2017-08-24T20:19:25.688Z,25.90
2017-08-24T20:21:53.326Z,25.90
2017-08-24T20:24:20.838Z,25.90
2017-08-24T20:26:48.347Z,25.80
2017-08-24T20:29:15.991Z,25.80
2017-08-24T20:31:43.597Z,25.70
2017-08-24T20:34:11.111Z,25.70
2017-08-24T20:36:38.745Z,25.60
2017-08-24T20:39:06.347Z,25.60
2017-08-24T20:41:33.887Z,25.60
2017-08-24T20:44:01.489Z,25.50
2017-08-24T20:46:30.023Z,25.50
2017-08-24T20:48:57.620Z,25.40
2017-08-24T20:51:25.200Z,25.30
2017-08-24T20:53:52.688Z,25.30
2017-08-24T20:56:20.190Z,25.20
2017-08-24T20:58:47.727Z,25.20
2017-08-24T21:01:15.285Z,25.10
2017-08-24T21:03:42.832Z,25.10
2017-08-24T21:06:11.483Z,24.90
2017-08-24T21:08:39.029Z,24.90
2017-08-24T21:11:06.565Z,24.90
2017-08-24T21:13:34.144Z,24.90
2017-08-24T21:16:01.684Z,24.80
2017-08-24T21:18:29.196Z,24.80
2017-08-24T21:20:56.764Z,24.80
2017-08-24T21:23:24.352Z,24.80
2017-08-24T21:25:51.881Z,24.80
2017-08-24T21:28:19.442Z,24.80
2017-08-24T21:30:46.953Z,24.80
2017-08-24T21:33:14.501Z,24.80
2017-08-24T21:35:42.761Z,24.80
2017-08-24T21:38:10.692Z,24.80
2017-08-24T21:40:38.263Z,24.80
2017-08-24T21:43:05.776Z,24.80
2017-08-24T21:45:33.297Z,24.80
2017-08-24T21:48:01.218Z,24.70
2017-08-24T21:50:28.803Z,24.60
2017-08-24T21:52:56.512Z,24.60
2017-08-24T21:55:24.048Z,24.60
2017-08-24T21:57:51.590Z,24.60
2017-08-24T22:00:19.114Z,24.60
2017-08-24T22:02:47.263Z,24.60
2017-08-24T22:05:14.791Z,24.50
2017-08-24T22:07:42.430Z,24.50
2017-08-24T22:10:09.983Z,24.50
2017-08-24T22:12:37.486Z,24.50
2017-08-24T22:15:05.884Z,24.50
2017-08-24T22:17:33.388Z,24.50
2017-08-24T22:20:00.887Z,24.50
2017-08-24T22:22:28.455Z,24.50
2017-08-24T22:24:56.028Z,24.40
2017-08-24T22:27:23.527Z,24.40
2017-08-24T22:29:51.051Z,24.40
2017-08-24T22:32:18.624Z,24.40
2017-08-24T22:34:46.117Z,24.40
2017-08-24T22:37:14.389Z,24.30
2017-08-24T22:39:41.941Z,24.30
2017-08-24T22:42:09.444Z,24.20
2017-08-24T22:44:37.247Z,24.20
2017-08-24T22:47:04.804Z,24.20
2017-08-24T22:49:32.341Z,24.20
2017-08-24T22:51:59.903Z,24.20
2017-08-24T22:54:32.954Z,24.20
2017-08-24T22:57:06.196Z,24.20
2017-08-24T22:59:39.371Z,24.20
2017-08-24T23:02:12.487Z,24.10
2017-08-24T23:04:40.083Z,24.10
2017-08-24T23:07:07.592Z,24.10
2017-08-24T23:09:35.101Z,24.00
2017-08-24T23:12:02.689Z,24.00
2017-08-24T23:14:30.257Z,23.90
2017-08-24T23:16:57.817Z,23.90
2017-08-24T23:19:25.925Z,23.90
2017-08-24T23:21:53.425Z,24.00
2017-08-24T23:24:20.981Z,24.00
2017-08-24T23:26:48.522Z,24.00
2017-08-24T23:29:16.094Z,24.00
2017-08-24T23:31:43.599Z,23.90
2017-08-24T23:34:11.146Z,23.80
2017-08-24T23:36:38.645Z,23.70
2017-08-24T23:39:06.188Z,23.70
2017-08-24T23:41:33.765Z,23.60
2017-08-24T23:44:01.338Z,23.50
2017-08-24T23:46:28.840Z,23.40
2017-08-24T23:48:56.346Z,23.50
2017-08-24T23:51:23.881Z,23.50
2017-08-24T23:53:51.399Z,23.60
2017-08-24T23:56:18.887Z,23.60
2017-08-24T23:58:46.433Z,23.60
